Rogers, AR

10:53 AM CST on January 25, 2015 (GMT -0600)
Prairie Creek | Change Station
CLOSE
Current Station
Personal Weather Station
Location: Rogers, AR
Elevation: 1306 ft
Nearby Weather Stations

Elev 1306 ft 36.34 °N, 94.04 °W | Updated 21 seconds ago

Overcast
Overcast
43.7 °F
Feels Like 37 °F
N
12.1
Wind Variable Wind from NW
Gusts 16.8 mph

Today
High -- | Low -- °F
--% Chance of Precip.
Yesterday
High -- | Low -- °F
Precip. -- in
7:22 AM 5:34 PM
Waxing Crescent, 34% visible
Pressure 29.77 in
Visibility 10.0 miles
Clouds Mostly Cloudy 2800 ft
Overcast 3200 ft
Windchill 37 °F
Dew Point 37 °F
Humidity 76%
Rainfall 0.02 in
Snow Depth Not available.
UV 1 out of 12
Pollen 5.40 out of 12
Air Quality Not available.
Flu Activity Not available.
METAR KROG 251557Z 29014G23KT 10SM -RA BKN028 OVC032 07/02 A2976 RMK AO2 PK WND 29026/1542 RAB47 SLP080 P0000 T00720022

More Conditions Fewer Conditions

Pressure 29.77 in
Visibility 10.0 miles
Clouds Mostly Cloudy 2800 ft
Overcast 3200 ft
Windchill 37 °F
Dew Point 37 °F
Humidity 76%
Rainfall 0.02 in
Snow Depth Not available.
UV 1 out of 12
Pollen 5.40 out of 12
Air Quality Not available.
Flu Activity Not available.
METAR KROG 251557Z 29014G23KT 10SM -RA BKN028 OVC032 07/02 A2976 RMK AO2 PK WND 29026/1542 RAB47 SLP080 P0000 T00720022

More Conditions Fewer Conditions

10-Day Weather Forecast

Almanac

Astronomy

Jan. 25, 2015 Rise Set
Actual Time
Civil Twilight
Nautical Twilight
Astronomical Twilight
Moon
Length of Visible Light
Length of Day
Tomorrow will be .
, % of the Moon is Illuminated

Today's Extremes

State Highs State Lows

Community

WunderPhotos

Upload Photos

1,789,963 photos uploaded!

WunderBlogs® & News

Nearby

Air Quality

  Air Quality AQ Index Pollutant
Not available.

Snow Depth

Station Depth Elevation

Earthquake Activity

City Distance Mag. Time & Date
Minimum magnitude displayed is 2.5.

Coastal Water Temperatures

Place Temperature

Nearby Weather Stations